Time;durP1;ratioP1;P1;durP2;ratioP2;P2;SDS_P1;SDS_P2;PMS_P1;PMS_P2;Temp;Humidity;BMP_temperature;BMP_pressure;BME280_temperature;BME280_humidity;BME280_pressure;Samples;Min_cycle;Max_cycle;Signal;HPM_P1;HPM_P2
2023/09/02 00:00:28;;;;;;;2.60;1.90;;;;;;;19.18;nan;99553.19;4931035;28;20225;-75
2023/09/02 00:02:53;;;;;;;1.93;1.63;;;;;;;19.18;nan;99547.03;4934550;28;20205;-75
2023/09/02 00:05:19;;;;;;;2.83;1.90;;;;;;;19.20;nan;99547.72;4931254;28;20600;-75
2023/09/02 00:07:44;;;;;;;3.13;1.87;;;;;;;19.18;nan;99550.50;4936306;28;20198;-76
2023/09/02 00:10:10;;;;;;;1.80;1.43;;;;;;;19.17;nan;99555.97;4933352;28;20229;-75
2023/09/02 00:12:35;;;;;;;1.60;1.43;;;;;;;19.14;nan;99556.28;4936761;28;20244;-75
2023/09/02 00:15:01;;;;;;;2.77;1.87;;;;;;;19.13;nan;99550.13;4936994;28;20205;-75
2023/09/02 00:17:26;;;;;;;3.50;1.80;;;;;;;19.08;nan;99547.09;4937085;28;20209;-75
2023/09/02 00:19:51;;;;;;;3.10;2.30;;;;;;;19.01;nan;99549.56;4930896;28;20643;-75
2023/09/02 00:22:17;;;;;;;3.07;2.47;;;;;;;18.97;nan;99548.16;4936333;28;20209;-75
2023/09/02 00:24:43;;;;;;;4.70;3.20;;;;;;;18.95;nan;99558.13;4934937;28;20217;-75
2023/09/02 00:27:08;;;;;;;4.30;2.00;;;;;;;18.96;nan;99559.81;4935686;28;20296;-74
2023/09/02 00:29:34;;;;;;;2.70;1.57;;;;;;;18.94;nan;99558.28;4914601;28;20992;-75
2023/09/02 00:31:59;;;;;;;7.23;1.87;;;;;;;18.88;nan;99562.41;4916862;28;20802;-75
2023/09/02 00:34:25;;;;;;;2.60;2.40;;;;;;;18.81;nan;99560.50;4933029;28;20194;-75
2023/09/02 00:36:50;;;;;;;1.80;1.50;;;;;;;18.71;nan;99560.53;4934527;28;20680;-75
2023/09/02 00:39:16;;;;;;;3.27;3.00;;;;;;;18.61;nan;99557.13;4931690;28;20213;-75
2023/09/02 00:41:49;;;;;;;1.50;1.40;;;;;;;18.47;nan;99556.63;4930928;28;20198;-75
2023/09/02 00:44:14;;;;;;;2.90;1.70;;;;;;;18.34;nan;99557.00;4933393;28;20311;-75
2023/09/02 00:46:40;;;;;;;5.27;1.40;;;;;;;18.28;nan;99564.69;4931120;28;21133;-75
2023/09/02 00:49:06;;;;;;;1.57;1.47;;;;;;;18.23;nan;99562.50;4933127;28;20447;-75
2023/09/02 00:51:31;;;;;;;3.07;1.50;;;;;;;18.24;nan;99569.50;4931730;28;20213;-75
2023/09/02 00:53:57;;;;;;;3.20;1.50;;;;;;;18.26;nan;99567.53;4916366;28;20198;-75
2023/09/02 00:56:24;;;;;;;3.83;1.40;;;;;;;18.30;nan;99563.56;4929594;28;20781;-75
2023/09/02 00:58:49;;;;;;;3.30;1.97;;;;;;;18.35;nan;99571.13;4935595;28;20562;-75
2023/09/02 01:01:15;;;;;;;1.93;1.70;;;;;;;18.37;nan;99577.13;4916312;28;20792;-75
2023/09/02 01:03:42;;;;;;;1.77;1.23;;;;;;;18.37;nan;99571.81;4931411;28;20662;-75
2023/09/02 01:06:09;;;;;;;3.97;2.17;;;;;;;18.36;nan;99580.75;4936902;28;20213;-75
2023/09/02 01:08:36;;;;;;;4.20;1.20;;;;;;;18.29;nan;99575.22;4916172;28;20981;-75
2023/09/02 01:11:02;;;;;;;1.83;1.27;;;;;;;18.22;nan;99579.44;4930433;28;20477;-74
2023/09/02 01:13:28;;;;;;;1.93;1.30;;;;;;;18.18;nan;99577.22;4931380;28;20205;-75
2023/09/02 01:15:54;;;;;;;1.83;1.63;;;;;;;18.16;nan;99577.38;4935099;28;20205;-75
2023/09/02 01:18:24;;;;;;;2.00;1.30;;;;;;;18.12;nan;99573.34;4925889;28;20431;-75
2023/09/02 01:21:08;;;;;;;1.47;1.10;;;;;;;18.14;nan;99584.66;4930006;28;22673;-75
2023/09/02 01:23:55;;;;;;;5.33;1.30;;;;;;;18.11;nan;99584.94;4933223;28;20485;-75
2023/09/02 01:26:42;;;;;;;3.00;1.90;;;;;;;18.02;nan;99594.63;4931163;28;20452;-75
2023/09/02 01:29:13;;;;;;;1.10;0.80;;;;;;;17.91;nan;99593.00;4933334;28;20510;-75
2023/09/02 01:31:39;;;;;;;2.50;1.20;;;;;;;17.79;nan;99591.47;4932901;28;20591;-75
2023/09/02 01:34:07;;;;;;;1.40;0.90;;;;;;;17.72;nan;99590.38;4931499;28;20431;-75
2023/09/02 01:36:34;;;;;;;1.33;0.90;;;;;;;17.67;nan;99593.44;4912381;28;20467;-75
2023/09/02 01:39:00;;;;;;;2.57;1.00;;;;;;;17.61;nan;99593.19;4929488;28;20776;-75
2023/09/02 01:41:28;;;;;;;1.03;0.93;;;;;;;17.56;nan;99590.13;4932221;28;20443;-75
2023/09/02 01:43:54;;;;;;;1.37;0.80;;;;;;;17.55;nan;99586.63;4932285;28;20473;-75
2023/09/02 01:46:20;;;;;;;1.23;1.13;;;;;;;17.54;nan;99592.09;4933408;28;20442;-74
2023/09/02 01:48:46;;;;;;;2.13;1.67;;;;;;;17.52;nan;99594.88;4914687;28;20813;-75
2023/09/02 01:51:13;;;;;;;1.83;1.10;;;;;;;17.51;nan;99590.53;4934478;28;20609;-75
2023/09/02 01:53:38;;;;;;;1.30;1.20;;;;;;;17.53;nan;99598.38;4927346;28;20448;-75
2023/09/02 01:56:04;;;;;;;1.60;0.93;;;;;;;17.56;nan;99600.75;4912377;28;20997;-75
2023/09/02 01:58:30;;;;;;;1.10;0.80;;;;;;;17.60;nan;99605.63;4914444;28;20200;-75
2023/09/02 02:00:57;;;;;;;1.97;1.40;;;;;;;17.62;nan;99601.00;4913423;28;20541;-75
2023/09/02 02:03:41;;;;;;;1.80;1.30;;;;;;;17.61;nan;99611.78;4914869;29;20204;-75
2023/09/02 02:06:09;;;;;;;2.10;1.00;;;;;;;17.56;nan;99609.56;4923042;28;20447;-74
2023/09/02 02:08:37;;;;;;;0.97;0.90;;;;;;;17.45;nan;99602.56;4908289;29;20772;-74
2023/09/02 02:11:04;;;;;;;1.40;1.00;;;;;;;17.34;nan;99602.72;4929758;28;21017;-74
2023/09/02 02:13:30;;;;;;;1.30;1.00;;;;;;;17.24;nan;99604.56;4927768;28;20449;-75
2023/09/02 02:15:55;;;;;;;1.53;0.90;;;;;;;17.17;nan;99606.06;4928173;28;20823;-74
2023/09/02 02:18:21;;;;;;;1.17;1.00;;;;;;;17.15;nan;99597.44;4912834;29;20225;-75
2023/09/02 02:20:59;;;;;;;1.17;1.00;;;;;;;17.15;nan;99598.28;4910744;29;20217;-75
2023/09/02 02:23:25;;;;;;;1.87;1.57;;;;;;;17.19;nan;99602.31;4928446;28;20217;-75
2023/09/02 02:25:50;;;;;;;1.67;1.10;;;;;;;17.23;nan;99595.75;4927214;28;21118;-75
2023/09/02 02:28:15;;;;;;;3.33;1.67;;;;;;;17.27;nan;99604.25;4918716;28;20453;-75
2023/09/02 02:30:41;;;;;;;1.43;1.00;;;;;;;17.29;nan;99604.13;4928192;28;20221;-75
2023/09/02 02:33:06;;;;;;;2.80;1.10;;;;;;;17.32;nan;99603.84;4910219;29;22571;-75
2023/09/02 02:35:32;;;;;;;2.40;1.40;;;;;;;17.34;nan;99608.03;4929482;28;20231;-75
2023/09/02 02:37:59;;;;;;;7.10;1.33;;;;;;;17.33;nan;99610.81;4928313;28;20213;-75
2023/09/02 02:40:25;;;;;;;1.60;1.30;;;;;;;17.31;nan;99612.78;4924816;28;20216;-75
2023/09/02 02:42:51;;;;;;;1.50;1.10;;;;;;;17.32;nan;99614.47;4910543;28;20511;-75
2023/09/02 02:45:16;;;;;;;1.30;1.20;;;;;;;17.30;nan;99614.59;4913350;29;20464;-75
2023/09/02 02:47:42;;;;;;;3.30;1.67;;;;;;;17.28;nan;99608.59;4930408;28;20201;-75
2023/09/02 02:50:07;;;;;;;1.77;1.50;;;;;;;17.28;nan;99613.91;4908417;29;20585;-75
2023/09/02 02:52:33;;;;;;;2.00;1.30;;;;;;;17.28;nan;99611.25;4908340;29;21143;-75
2023/09/02 02:54:59;;;;;;;1.57;1.40;;;;;;;17.29;nan;99614.75;4908496;29;20538;-75
2023/09/02 02:57:24;;;;;;;5.40;2.20;;;;;;;17.30;nan;99616.41;4931492;28;20204;-75
2023/09/02 02:59:53;;;;;;;2.03;1.53;;;;;;;17.29;nan;99614.75;4907059;29;20209;-75
2023/09/02 03:02:18;;;;;;;2.73;1.50;;;;;;;17.23;nan;99616.16;4927276;28;20737;-75
2023/09/02 03:04:48;;;;;;;1.70;1.20;;;;;;;17.20;nan;99619.06;4914623;29;20476;-74
2023/09/02 03:07:15;;;;;;;2.27;1.50;;;;;;;17.16;nan;99615.84;4930500;28;20213;-75
2023/09/02 03:09:42;;;;;;;3.37;1.80;;;;;;;17.16;nan;99620.34;4914933;28;20442;-75
2023/09/02 03:12:08;;;;;;;2.40;1.60;;;;;;;17.13;nan;99616.16;4910521;28;20453;-75
2023/09/02 03:14:34;;;;;;;2.03;1.67;;;;;;;17.14;nan;99614.31;4914911;28;20193;-75
2023/09/02 03:16:59;;;;;;;3.00;1.40;;;;;;;17.13;nan;99621.44;4915401;29;20244;-75
2023/09/02 03:19:25;;;;;;;1.83;1.30;;;;;;;17.13;nan;99631.25;4915546;28;20560;-75
2023/09/02 03:21:51;;;;;;;2.40;1.40;;;;;;;17.13;nan;99625.94;4917221;28;20208;-75
2023/09/02 03:24:16;;;;;;;6.53;1.93;;;;;;;17.11;nan;99625.22;4920380;28;20858;-75
2023/09/02 03:26:42;;;;;;;3.43;1.30;;;;;;;17.09;nan;99629.81;4918909;29;20204;-75
2023/09/02 03:29:08;;;;;;;8.63;1.50;;;;;;;17.07;nan;99629.16;4933369;28;20253;-75
2023/09/02 03:31:35;;;;;;;1.80;1.57;;;;;;;17.05;nan;99629.28;4917415;29;20476;-75
2023/09/02 03:34:02;;;;;;;3.70;1.80;;;;;;;17.06;nan;99630.09;4914891;29;20542;-75
2023/09/02 03:36:28;;;;;;;3.20;1.23;;;;;;;17.04;nan;99630.25;4917468;28;20444;-74
2023/09/02 03:38:53;;;;;;;2.00;1.43;;;;;;;17.00;nan;99634.97;4927443;28;20492;-74
2023/09/02 03:41:20;;;;;;;5.67;3.33;;;;;;;16.98;nan;99628.97;4916901;28;20181;-75
2023/09/02 03:43:46;;;;;;;2.73;2.07;;;;;;;16.91;nan;99627.03;4917472;28;20244;-74
2023/09/02 03:46:13;;;;;;;2.50;1.83;;;;;;;16.84;nan;99620.59;4916416;29;20456;-75
2023/09/02 03:48:39;;;;;;;1.93;1.73;;;;;;;16.79;nan;99621.81;4916145;28;20197;-75
2023/09/02 03:51:11;;;;;;;5.50;1.93;;;;;;;16.73;nan;99627.66;4914926;28;20797;-75
2023/09/02 03:53:38;;;;;;;2.40;2.10;;;;;;;16.70;nan;99625.28;4919600;28;20287;-75
2023/09/02 03:56:04;;;;;;;8.63;2.37;;;;;;;16.69;nan;99615.66;4916925;28;20791;-74
2023/09/02 03:58:31;;;;;;;2.30;2.10;;;;;;;16.62;nan;99608.38;4932641;28;20430;-75
2023/09/02 04:00:58;;;;;;;2.77;1.63;;;;;;;16.52;nan;99606.53;4917193;29;21024;-75
2023/09/02 04:03:25;;;;;;;2.50;1.57;;;;;;;16.48;nan;99607.78;4920699;29;20213;-75
2023/09/02 04:05:52;;;;;;;4.20;2.10;;;;;;;16.48;nan;99605.13;4936477;28;20463;-75
2023/09/02 04:08:22;;;;;;;3.40;1.87;;;;;;;16.49;nan;99612.09;4918622;28;20946;-75
2023/09/02 04:10:52;;;;;;;3.87;2.03;;;;;;;16.49;nan;99609.44;4935011;28;20467;-76
2023/09/02 04:13:25;;;;;;;3.40;1.80;;;;;;;16.55;nan;99611.56;4938436;28;20526;-75
2023/09/02 04:15:55;;;;;;;2.00;1.53;;;;;;;16.57;nan;99614.91;4912965;29;20444;-75
2023/09/02 04:18:21;;;;;;;1.93;1.70;;;;;;;16.58;nan;99606.00;4917565;28;20802;-75
2023/09/02 04:20:47;;;;;;;2.53;1.70;;;;;;;16.59;nan;99605.00;4916479;28;20494;-75
2023/09/02 04:23:12;;;;;;;2.60;1.50;;;;;;;16.52;nan;99611.81;4914162;28;20472;-75
2023/09/02 04:25:52;;;;;;;1.67;1.10;;;;;;;16.42;nan;99610.13;4915629;28;20197;-75
2023/09/02 04:28:19;;;;;;;1.10;1.00;;;;;;;16.30;nan;99607.56;4915412;29;20204;-75
2023/09/02 04:30:46;;;;;;;1.17;1.07;;;;;;;16.22;nan;99614.53;4930802;23;20537;-75
2023/09/02 04:33:14;;;;;;;1.97;1.13;;;;;;;16.15;nan;99614.22;4883477;29;20456;-75
2023/09/02 04:35:43;;;;;;;1.45;1.30;;;;;;;16.09;nan;99620.03;4891318;29;20470;-75
2023/09/02 04:38:09;;;;;;;1.20;1.10;;;;;;;16.03;nan;99625.88;4886362;29;20200;-75
2023/09/02 04:40:40;;;;;;;1.40;1.30;;;;;;;15.96;nan;99630.00;4887349;29;20482;-75
2023/09/02 04:43:07;;;;;;;2.20;1.23;;;;;;;15.90;nan;99626.09;4887082;29;20730;-75
2023/09/02 04:45:36;;;;;;;2.95;1.60;;;;;;;15.85;nan;99622.97;4885987;29;20794;-75
2023/09/02 04:48:06;;;;;;;6.23;1.90;;;;;;;15.83;nan;99631.06;4889692;29;20264;-75
2023/09/02 04:50:34;;;;;;;2.43;1.40;;;;;;;15.84;nan;99632.75;4885888;29;20468;-75
2023/09/02 04:53:01;;;;;;;1.45;1.35;;;;;;;15.89;nan;99635.84;4887728;29;20507;-75
2023/09/02 04:55:31;;;;;;;3.20;1.70;;;;;;;15.96;nan;99638.81;4901850;29;20232;-75
2023/09/02 04:57:58;;;;;;;2.77;1.63;;;;;;;16.04;nan;99648.75;4883517;29;20456;-75
2023/09/02 05:00:25;;;;;;;2.30;1.98;;;;;;;16.11;nan;99645.44;4885723;29;20458;-75
2023/09/02 05:02:51;;;;;;;3.17;1.60;;;;;;;16.17;nan;99656.47;4876212;29;20202;-75
2023/09/02 05:05:18;;;;;;;3.27;2.00;;;;;;;16.21;nan;99658.75;4888579;29;20749;-75
2023/09/02 05:07:44;;;;;;;2.50;1.65;;;;;;;16.25;nan;99668.09;4873203;29;20218;-75
2023/09/02 05:10:13;;;;;;;4.23;1.90;;;;;;;16.41;nan;99659.66;4884934;29;20217;-75
2023/09/02 05:12:38;;;;;;;2.43;1.67;;;;;;;16.67;nan;99665.34;4902626;29;20974;-75
2023/09/02 05:15:05;;;;;;;1.67;1.57;;;;;;;17.01;nan;99665.00;4900398;29;20579;-75
2023/09/02 05:17:32;;;;;;;2.53;1.63;;;;;;;17.35;nan;99673.44;4885480;29;20461;-76
2023/09/02 05:19:58;;;;;;;1.70;1.57;;;;;;;17.66;nan;99673.25;4886739;29;20470;-75
2023/09/02 05:22:24;;;;;;;2.77;1.80;;;;;;;17.96;nan;99672.28;4900969;29;20517;-80
2023/09/02 05:24:52;;;;;;;2.50;1.60;;;;;;;18.24;nan;99677.66;4900148;29;20482;-79
2023/09/02 05:27:18;;;;;;;2.13;1.93;;;;;;;18.34;nan;99679.31;4882652;29;20231;-78
2023/09/02 05:29:44;;;;;;;2.50;2.30;;;;;;;18.32;nan;99683.09;4899183;29;20453;-79
2023/09/02 05:32:13;;;;;;;2.40;1.60;;;;;;;18.19;nan;99683.41;4899425;29;20492;-78
2023/09/02 05:34:39;;;;;;;3.03;2.30;;;;;;;18.04;nan;99687.53;4894210;29;20263;-77
2023/09/02 05:37:04;;;;;;;1.83;1.73;;;;;;;17.88;nan;99696.09;4894918;29;20492;-76
2023/09/02 05:39:30;;;;;;;2.07;1.80;;;;;;;17.73;nan;99698.28;4888542;29;20211;-79
2023/09/02 05:41:55;;;;;;;2.70;2.13;;;;;;;17.65;nan;99706.97;4889149;29;20203;-77
2023/09/02 05:44:21;;;;;;;2.90;1.87;;;;;;;17.61;nan;99702.94;4890571;29;20251;-79
2023/09/02 05:46:46;;;;;;;2.80;1.90;;;;;;;17.59;nan;99702.22;4870805;29;20199;-80
2023/09/02 05:49:14;;;;;;;2.80;2.47;;;;;;;17.58;nan;99715.63;4889744;29;20249;-77
2023/09/02 05:51:40;;;;;;;2.53;1.80;;;;;;;17.58;nan;99718.28;4887272;29;20229;-75
2023/09/02 05:54:09;;;;;;;4.00;2.80;;;;;;;17.57;nan;99721.94;4891390;29;20862;-74
2023/09/02 05:56:38;;;;;;;2.93;2.43;;;;;;;17.58;nan;99715.63;4895809;29;20227;-75
2023/09/02 05:59:04;;;;;;;2.30;2.10;;;;;;;17.64;nan;99712.44;4897911;29;20466;-75
2023/09/02 06:01:31;;;;;;;4.57;1.90;;;;;;;17.89;nan;99711.88;4899683;29;20482;-75
2023/09/02 06:03:56;;;;;;;3.27;2.30;;;;;;;18.30;nan;99715.13;4904368;29;20472;-76
2023/09/02 06:06:22;;;;;;;4.30;2.40;;;;;;;18.91;nan;99715.63;4879968;29;20455;-75
2023/09/02 06:08:48;;;;;;;2.30;2.07;;;;;;;19.59;nan;99708.00;4898510;29;20458;-76
2023/09/02 06:11:13;;;;;;;3.93;2.43;;;;;;;20.25;nan;99720.03;4898808;29;20328;-75
2023/09/02 06:13:39;;;;;;;4.23;2.10;;;;;;;20.70;nan;99710.97;4890568;29;20463;-76
2023/09/02 06:16:05;;;;;;;3.10;1.83;;;;;;;21.07;nan;99706.25;4891443;29;20886;-76
2023/09/02 06:18:32;;;;;;;3.10;1.70;;;;;;;21.28;nan;99706.66;4888669;29;20251;-76
2023/09/02 06:21:18;;;;;;;5.03;2.10;;;;;;;21.63;nan;99710.88;4890036;29;21412;-76
2023/09/02 06:23:44;;;;;;;1.83;1.50;;;;;;;22.09;nan;99707.69;4892270;29;20849;-76
2023/09/02 06:26:12;;;;;;;3.77;2.20;;;;;;;22.53;nan;99713.47;4891915;29;20493;-77
2023/09/02 06:28:37;;;;;;;2.90;2.10;;;;;;;22.75;nan;99711.03;4885235;29;20898;-76
2023/09/02 06:31:10;;;;;;;1.43;1.33;;;;;;;22.94;nan;99718.66;4894404;29;20524;-76
2023/09/02 06:33:36;;;;;;;3.20;2.30;;;;;;;22.96;nan;99727.38;4892339;29;20493;-76
2023/09/02 06:36:09;;;;;;;2.37;1.90;;;;;;;22.81;nan;99728.25;4893823;29;20470;-77
2023/09/02 06:38:34;;;;;;;2.20;2.00;;;;;;;22.46;nan;99731.22;4899336;29;20436;-77
2023/09/02 06:41:00;;;;;;;3.77;1.73;;;;;;;22.16;nan;99737.28;4895514;29;20459;-77
2023/09/02 06:43:25;;;;;;;3.73;2.17;;;;;;;21.84;nan;99737.09;4881940;29;20636;-76
2023/09/02 06:45:51;;;;;;;2.37;2.17;;;;;;;21.52;nan;99740.63;4895508;29;20308;-77
2023/09/02 06:48:16;;;;;;;2.10;1.83;;;;;;;21.17;nan;99733.63;4899810;29;20206;-76
2023/09/02 06:50:45;;;;;;;4.43;2.03;;;;;;;20.83;nan;99742.56;4895053;29;20200;-77
2023/09/02 06:53:10;;;;;;;3.23;1.83;;;;;;;20.61;nan;99743.13;4897419;29;20230;-76
2023/09/02 06:55:36;;;;;;;2.57;1.87;;;;;;;20.44;nan;99737.66;4897224;29;20512;-76
2023/09/02 06:58:02;;;;;;;2.87;1.73;;;;;;;20.34;nan;99735.09;4900041;29;20236;-76
2023/09/02 07:00:30;;;;;;;8.00;2.17;;;;;;;20.32;nan;99734.41;4893914;29;20573;-77
2023/09/02 07:02:55;;;;;;;3.23;1.90;;;;;;;20.30;nan;99732.91;4894265;29;20199;-76
2023/09/02 07:05:20;;;;;;;16.53;14.70;;;;;;;20.31;nan;99742.59;4896257;29;20771;-76
2023/09/02 07:07:46;;;;;;;6.33;2.80;;;;;;;20.32;nan;99746.91;4895144;29;20299;-76
2023/09/02 07:10:11;;;;;;;2.77;2.10;;;;;;;20.32;nan;99749.59;4881815;29;20215;-77
2023/09/02 07:12:36;;;;;;;5.97;2.00;;;;;;;20.33;nan;99754.78;4896063;29;20652;-76
2023/09/02 07:15:02;;;;;;;2.90;2.33;;;;;;;20.38;nan;99750.78;4896407;29;20207;-76
2023/09/02 07:17:28;;;;;;;3.00;2.60;;;;;;;20.44;nan;99751.00;4879079;29;20195;-76
2023/09/02 07:19:54;;;;;;;3.93;1.97;;;;;;;20.51;nan;99749.38;4896816;29;20640;-78
2023/09/02 07:22:20;;;;;;;3.37;1.77;;;;;;;20.55;nan;99750.78;4894308;29;20442;-75
2023/09/02 07:24:45;;;;;;;2.53;1.90;;;;;;;20.60;nan;99752.94;4897143;29;20704;-75
2023/09/02 07:27:11;;;;;;;4.80;2.00;;;;;;;20.93;nan;99753.94;4896499;29;20564;-75
2023/09/02 07:29:36;;;;;;;4.67;1.93;;;;;;;21.68;nan;99750.47;4895600;29;20292;-75
2023/09/02 07:32:02;;;;;;;2.17;2.00;;;;;;;22.48;nan;99747.13;4892258;29;20211;-75
2023/09/02 07:34:27;;;;;;;3.10;1.77;;;;;;;23.19;nan;99750.72;4895037;29;20647;-75
2023/09/02 07:36:52;;;;;;;2.60;1.77;;;;;;;23.88;nan;99747.28;4895402;29;20209;-75
2023/09/02 07:39:19;;;;;;;1.93;1.53;;;;;;;24.54;nan;99748.34;4894650;29;20948;-75
2023/09/02 07:41:44;;;;;;;3.40;1.80;;;;;;;25.26;nan;99749.50;4895992;29;20409;-75
2023/09/02 07:44:10;;;;;;;3.37;1.90;;;;;;;26.04;nan;99745.13;4896974;29;20521;-75
2023/09/02 07:46:35;;;;;;;5.53;1.90;;;;;;;26.76;nan;99740.44;4895944;29;20262;-76
2023/09/02 07:49:00;;;;;;;3.73;1.90;;;;;;;27.36;nan;99744.25;4895816;29;20210;-76
2023/09/02 07:51:26;;;;;;;2.10;1.60;;;;;;;27.77;nan;99741.41;4896268;29;20273;-76
2023/09/02 07:53:51;;;;;;;2.20;1.40;;;;;;;27.90;nan;99746.00;4897707;29;20193;-76
2023/09/02 07:56:17;;;;;;;3.43;1.93;;;;;;;28.01;nan;99748.09;4892506;29;20649;-76
2023/09/02 07:58:46;;;;;;;1.80;1.70;;;;;;;28.24;nan;99741.41;4892568;29;20204;-76
2023/09/02 08:01:12;;;;;;;3.93;1.80;;;;;;;28.55;nan;99743.50;4899046;29;20350;-76
2023/09/02 08:03:37;;;;;;;3.23;2.40;;;;;;;28.86;nan;99740.06;4898976;29;21378;-76
2023/09/02 08:06:06;;;;;;;2.67;2.00;;;;;;;29.27;nan;99747.00;4899425;29;20952;-76
2023/09/02 08:08:32;;;;;;;3.87;2.03;;;;;;;29.48;nan;99743.09;4900139;29;20281;-76
2023/09/02 08:11:05;;;;;;;2.70;1.77;;;;;;;29.73;nan;99755.88;4897465;29;21046;-76
2023/09/02 08:13:31;;;;;;;2.47;1.70;;;;;;;29.88;nan;99742.03;4899593;29;20250;-76
2023/09/02 08:15:57;;;;;;;3.93;1.80;;;;;;;30.02;nan;99734.63;4898256;29;20474;-76
2023/09/02 08:18:23;;;;;;;2.50;1.83;;;;;;;30.13;nan;99733.91;4900934;29;20380;-76
2023/09/02 08:20:48;;;;;;;3.00;1.60;;;;;;;30.21;nan;99733.63;4898707;29;20520;-76
2023/09/02 08:23:13;;;;;;;3.90;1.90;;;;;;;30.23;nan;99733.44;4878498;29;20234;-76
2023/09/02 08:25:39;;;;;;;1.87;1.53;;;;;;;30.18;nan;99734.88;4900792;29;20695;-76
2023/09/02 08:28:04;;;;;;;1.90;1.60;;;;;;;30.25;nan;99734.88;4884921;29;20290;-76
2023/09/02 08:30:30;;;;;;;2.40;1.60;;;;;;;30.43;nan;99739.47;4894147;29;20234;-76
2023/09/02 08:32:55;;;;;;;2.03;1.40;;;;;;;30.60;nan;99728.91;4887724;29;20336;-77
2023/09/02 08:35:20;;;;;;;2.33;1.60;;;;;;;30.70;nan;99723.75;4887757;29;20205;-76
2023/09/02 08:37:46;;;;;;;1.50;1.40;;;;;;;30.64;nan;99722.78;4891088;29;20198;-76
2023/09/02 08:40:11;;;;;;;2.40;1.60;;;;;;;30.82;nan;99724.69;4894469;29;20218;-76
2023/09/02 08:45:22;;;;;;;4.53;1.50;;;;;;;30.87;nan;99729.44;4118623;27;20609;-74
2023/09/02 08:47:54;;;;;;;4.80;1.37;;;;;;;30.92;nan;99729.59;4890971;29;20473;-74
2023/09/02 08:50:20;;;;;;;2.60;1.70;;;;;;;30.94;nan;99719.31;4889867;29;20888;-74
2023/09/02 08:52:46;;;;;;;2.07;1.57;;;;;;;30.62;nan;99727.63;4884237;29;21190;-74
2023/09/02 08:55:14;;;;;;;1.80;1.70;;;;;;;30.16;nan;99728.88;4886050;29;20469;-74
2023/09/02 08:57:39;;;;;;;1.67;1.57;;;;;;;29.70;nan;99729.25;4874906;29;20199;-75
2023/09/02 09:00:06;;;;;;;2.60;2.00;;;;;;;29.34;nan;99730.72;4880520;29;20487;-74
2023/09/02 09:02:35;;;;;;;2.37;2.17;;;;;;;29.01;nan;99730.88;4883172;29;20200;-74
2023/09/02 09:05:02;;;;;;;2.57;1.70;;;;;;;28.94;nan;99738.16;4884836;29;20480;-74
2023/09/02 09:07:29;;;;;;;3.37;1.67;;;;;;;28.92;nan;99732.94;4880490;29;20462;-74
2023/09/02 09:09:59;;;;;;;2.10;1.77;;;;;;;28.68;nan;99738.06;4876754;29;20479;-74
2023/09/02 09:12:25;;;;;;;2.33;1.50;;;;;;;28.64;nan;99744.09;4882234;29;20502;-74
2023/09/02 09:14:54;;;;;;;2.17;1.70;;;;;;;28.70;nan;99745.09;4883037;29;21324;-74
2023/09/02 09:17:19;;;;;;;2.40;1.30;;;;;;;28.71;nan;99746.78;4883796;29;20506;-75
2023/09/02 09:19:45;;;;;;;3.07;1.53;;;;;;;28.73;nan;99753.59;4878831;29;20563;-74
2023/09/02 09:22:11;;;;;;;2.30;1.70;;;;;;;28.55;nan;99750.78;4875540;29;20219;-74
2023/09/02 09:24:36;;;;;;;3.70;1.40;;;;;;;28.20;nan;99745.59;4881651;29;20219;-74
2023/09/02 09:27:05;;;;;;;2.07;1.40;;;;;;;27.86;nan;99742.06;4882334;29;20278;-74
2023/09/02 09:29:41;;;;;;;2.50;1.70;;;;;;;27.85;nan;99742.28;4880896;29;20211;-74
2023/09/02 09:32:12;;;;;;;2.03;1.30;;;;;;;27.71;nan;99741.41;4854745;29;21182;-74
2023/09/02 09:34:40;;;;;;;18.70;2.37;;;;;;;27.72;nan;99743.06;4876737;29;20974;-74
2023/09/02 09:37:07;;;;;;;2.22;1.50;;;;;;;27.90;nan;99731.69;4884511;29;21106;-74
2023/09/02 09:39:51;;;;;;;2.23;1.90;;;;;;;27.86;nan;99733.13;4885712;29;20217;-75
2023/09/02 09:42:17;;;;;;;3.17;1.50;;;;;;;27.85;nan;99726.91;4881406;29;20460;-75
2023/09/02 09:44:53;;;;;;;2.33;1.40;;;;;;;27.95;nan;99727.31;4876999;29;20485;-75
2023/09/02 09:47:19;;;;;;;2.43;1.43;;;;;;;28.06;nan;99723.16;4881148;29;20708;-76
2023/09/02 09:49:49;;;;;;;2.40;1.67;;;;;;;28.16;nan;99723.56;4879645;29;20493;-75
2023/09/02 09:52:14;;;;;;;2.27;1.40;;;;;;;27.96;nan;99725.44;4883690;29;20475;-77
2023/09/02 09:54:45;;;;;;;2.07;1.50;;;;;;;27.88;nan;99715.69;4875975;29;21051;-76
2023/09/02 09:57:16;;;;;;;2.70;1.77;;;;;;;28.05;nan;99718.78;4880029;29;20611;-74
2023/09/02 09:59:51;;;;;;;2.50;1.73;;;;;;;28.19;nan;99720.47;4882332;29;20476;-76
2023/09/02 10:02:19;;;;;;;2.57;1.47;;;;;;;28.22;nan;99711.94;4886249;29;20459;-76
2023/09/02 10:04:59;;;;;;;3.80;1.80;;;;;;;28.29;nan;99711.91;4880218;29;20482;-76
2023/09/02 10:07:31;;;;;;;5.10;1.80;;;;;;;28.52;nan;99708.78;4879166;29;20867;-76
2023/09/02 10:10:02;;;;;;;4.40;1.50;;;;;;;28.75;nan;99712.88;4877872;29;20491;-76
2023/09/02 10:12:33;;;;;;;3.07;2.03;;;;;;;28.95;nan;99705.50;4881517;29;20967;-77
2023/09/02 10:15:00;;;;;;;1.80;1.40;;;;;;;29.16;nan;99704.38;4885331;29;20962;-77
2023/09/02 10:17:26;;;;;;;1.83;1.70;;;;;;;29.26;nan;99709.31;4882490;29;20489;-77
2023/09/02 10:19:51;;;;;;;2.07;1.30;;;;;;;29.12;nan;99708.56;4876013;29;20943;-76
2023/09/02 10:22:20;;;;;;;3.00;1.50;;;;;;;29.08;nan;99710.88;4877344;29;21105;-76
2023/09/02 10:25:16;;;;;;;2.40;1.43;;;;;;;29.16;nan;99701.66;4878176;29;20214;-77
2023/09/02 10:27:46;;;;;;;2.67;1.47;;;;;;;29.36;nan;99695.34;4870480;29;20473;-77
2023/09/02 10:30:29;;;;;;;1.90;1.20;;;;;;;29.55;nan;99694.38;4903173;23;20492;-80
2023/09/02 10:33:02;;;;;;;3.73;1.50;;;;;;;29.75;nan;99694.22;4929030;29;20960;-80
2023/09/02 10:35:30;;;;;;;3.33;1.57;;;;;;;29.89;nan;99684.09;4914968;28;20928;-80
2023/09/02 10:38:02;;;;;;;2.90;1.80;;;;;;;29.93;nan;99674.50;4920412;29;20452;-80
2023/09/02 10:40:33;;;;;;;2.40;1.40;;;;;;;29.93;nan;99678.03;4929492;28;20507;-81
2023/09/02 10:42:59;;;;;;;2.27;1.90;;;;;;;29.90;nan;99670.38;4932532;28;20597;-81
2023/09/02 10:45:25;;;;;;;1.80;1.20;;;;;;;29.92;nan;99665.56;4933050;28;20492;-81
2023/09/02 10:47:51;;;;;;;3.63;2.50;;;;;;;29.97;nan;99667.56;4932081;28;20698;-81
2023/09/02 10:50:19;;;;;;;2.90;1.57;;;;;;;30.09;nan;99660.38;4929629;28;21011;-80
2023/09/02 10:52:45;;;;;;;3.47;2.20;;;;;;;30.15;nan;99664.91;4931875;28;20701;-81
2023/09/02 10:55:11;;;;;;;2.57;2.03;;;;;;;30.16;nan;99663.00;4935402;28;20464;-80
2023/09/02 10:57:54;;;;;;;2.40;2.20;;;;;;;30.17;nan;99667.41;4937770;28;20205;-81
2023/09/02 11:00:27;;;;;;;3.20;2.87;;;;;;;30.18;nan;99661.75;4937008;28;20746;-80
2023/09/02 11:02:55;;;;;;;2.73;2.13;;;;;;;30.19;nan;99674.25;4938595;28;20484;-81
2023/09/02 11:05:22;;;;;;;3.13;1.77;;;;;;;30.14;nan;99665.13;4933963;28;20547;-81
2023/09/02 11:07:49;;;;;;;2.47;2.00;;;;;;;30.07;nan;99669.78;4938051;28;20469;-80
2023/09/02 11:10:15;;;;;;;2.70;1.97;;;;;;;30.04;nan;99668.34;4938951;28;20500;-80
2023/09/02 11:13:13;;;;;;;3.43;1.43;;;;;;;30.08;nan;99658.72;4939542;28;20500;-81
2023/09/02 11:15:39;;;;;;;1.93;1.00;;;;;;;30.15;nan;99662.19;4885395;28;20473;-81
2023/09/02 11:18:28;;;;;;;2.20;1.47;;;;;;;30.11;nan;99658.28;4937570;28;20676;-81
2023/09/02 11:20:53;;;;;;;2.60;1.60;;;;;;;30.03;nan;99668.56;4938995;28;20217;-80
2023/09/02 11:23:22;;;;;;;2.27;1.30;;;;;;;30.04;nan;99662.94;4940655;28;21056;-81
2023/09/02 11:26:05;;;;;;;1.70;1.20;;;;;;;30.07;nan;99664.38;4940597;28;20197;-81
2023/09/02 11:28:31;;;;;;;1.47;1.20;;;;;;;30.08;nan;99666.84;4940237;28;20844;-81
2023/09/02 11:31:04;;;;;;;1.93;1.83;;;;;;;30.08;nan;99671.44;4938877;28;20491;-81
2023/09/02 11:33:30;;;;;;;2.60;1.87;;;;;;;30.02;nan;99678.56;4942106;28;20912;-81
2023/09/02 11:36:06;;;;;;;2.67;2.17;;;;;;;30.01;nan;99678.81;4944323;28;20531;-81
2023/09/02 11:38:33;;;;;;;1.67;1.57;;;;;;;30.08;nan;99676.84;4941731;28;20476;-81
2023/09/02 11:40:59;;;;;;;3.27;1.70;;;;;;;30.15;nan;99672.22;4939721;28;20452;-81
2023/09/02 11:43:29;;;;;;;1.40;1.30;;;;;;;30.15;nan;99674.91;4942219;28;21092;-81
2023/09/02 11:45:54;;;;;;;1.37;1.10;;;;;;;30.10;nan;99681.00;4944325;28;20247;-81
2023/09/02 11:48:24;;;;;;;1.40;1.30;;;;;;;30.01;nan;99687.75;4944194;28;20472;-81
2023/09/02 11:50:49;;;;;;;5.10;1.50;;;;;;;29.93;nan;99694.28;4921614;28;20348;-82
2023/09/02 11:53:14;;;;;;;1.40;1.30;;;;;;;29.95;nan;99688.66;4942075;28;20518;-81
2023/09/02 11:55:40;;;;;;;1.43;1.33;;;;;;;29.99;nan;99693.38;4940288;28;20598;-79